Time;durP1;ratioP1;P1;durP2;ratioP2;P2;SDS_P1;SDS_P2;PMS_P1;PMS_P2;Temp;Humidity;BMP_temperature;BMP_pressure;BME280_temperature;BME280_humidity;BME280_pressure;Samples;Min_cycle;Max_cycle;Signal;HPM_P1;HPM_P2
2022/09/07 00:01:38;;;;;;;;;;;25.90;75.30;;;;;;5053753;28;19945;-62
2022/09/07 00:04:04;;;;;;;;;;;26.00;75.40;;;;;;5054579;28;19935;-62
2022/09/07 00:06:29;;;;;;;;;;;25.80;75.20;;;;;;5056738;28;19959;-62
2022/09/07 00:08:55;;;;;;;;;;;26.00;75.70;;;;;;5039041;28;19979;-62
2022/09/07 00:11:21;;;;;;;;;;;25.70;75.10;;;;;;5037641;28;20043;-63
2022/09/07 00:13:47;;;;;;;;;;;25.90;75.40;;;;;;5016601;28;20012;-62
2022/09/07 00:16:33;;;;;;;;;;;26.00;75.80;;;;;;5028138;28;20403;-62
2022/09/07 00:18:59;;;;;;;;;;;25.70;75.60;;;;;;5029961;28;19929;-62
2022/09/07 00:21:25;;;;;;;;;;;26.20;75.90;;;;;;5056757;28;20383;-62
2022/09/07 00:23:50;;;;;;;;;;;25.90;75.50;;;;;;5056721;28;19925;-62
2022/09/07 00:26:23;;;;;;;;;;;25.70;75.20;;;;;;5068041;28;19933;-61
2022/09/07 00:28:49;;;;;;;;;;;25.80;74.30;;;;;;5054173;28;19947;-62
2022/09/07 00:31:19;;;;;;;;;;;25.80;75.40;;;;;;5053619;28;20383;-62
2022/09/07 00:33:44;;;;;;;;;;;26.10;74.60;;;;;;5039758;28;20023;-63
2022/09/07 00:36:10;;;;;;;;;;;26.20;76.00;;;;;;5028529;28;20450;-64
2022/09/07 00:38:36;;;;;;;;;;;26.20;75.90;;;;;;5043009;28;19925;-62
2022/09/07 00:41:01;;;;;;;;;;;25.90;75.70;;;;;;5053647;28;20027;-62
2022/09/07 00:43:28;;;;;;;;;;;25.70;75.40;;;;;;5022641;28;19932;-62
2022/09/07 00:45:54;;;;;;;;;;;25.90;76.00;;;;;;5037999;28;19979;-62
2022/09/07 00:48:20;;;;;;;;;;;25.90;75.70;;;;;;5056007;28;19972;-62
2022/09/07 00:50:49;;;;;;;;;;;25.90;75.80;;;;;;5055072;28;19932;-62
2022/09/07 00:53:32;;;;;;;;;;;25.80;75.80;;;;;;5067984;28;20041;-62
2022/09/07 00:55:57;;;;;;;;;;;25.80;74.60;;;;;;5050316;28;19932;-62
2022/09/07 00:58:23;;;;;;;;;;;25.90;75.70;;;;;;5037410;28;19924;-62
2022/09/07 01:00:49;;;;;;;;;;;25.80;75.80;;;;;;5026216;28;19925;-63
2022/09/07 01:03:15;;;;;;;;;;;25.70;76.00;;;;;;5038167;28;19932;-61
2022/09/07 01:05:42;;;;;;;;;;;25.70;75.90;;;;;;5043240;28;19924;-62
2022/09/07 01:08:08;;;;;;;;;;;25.70;76.00;;;;;;5049257;28;20322;-62
2022/09/07 01:10:33;;;;;;;;;;;25.70;75.70;;;;;;5067355;28;19925;-62
2022/09/07 01:12:59;;;;;;;;;;;25.70;75.60;;;;;;5061005;28;19925;-62
2022/09/07 01:15:29;;;;;;;;;;;25.70;75.70;;;;;;5045111;28;19928;-62
2022/09/07 01:18:02;;;;;;;;;;;26.00;76.20;;;;;;5052426;28;19978;-61
2022/09/07 01:20:37;;;;;;;;;;;25.80;74.80;;;;;;5049638;28;19929;-64
2022/09/07 01:23:21;;;;;;;;;;;25.70;74.70;;;;;;5048110;28;20410;-62
2022/09/07 01:26:05;;;;;;;;;;;25.70;74.70;;;;;;5036204;28;19948;-62
2022/09/07 01:28:31;;;;;;;;;;;25.80;74.90;;;;;;5040927;28;19925;-62
2022/09/07 01:31:00;;;;;;;;;;;25.90;76.40;;;;;;5018868;28;20023;-63
2022/09/07 01:33:32;;;;;;;;;;;25.70;74.80;;;;;;5044479;28;19936;-62
2022/09/07 01:36:16;;;;;;;;;;;26.00;75.00;;;;;;5063776;28;19924;-62
2022/09/07 01:38:46;;;;;;;;;;;25.90;74.90;;;;;;5037649;28;20401;-62
2022/09/07 01:41:24;;;;;;;;;;;25.80;74.80;;;;;;5065099;28;19925;-62
2022/09/07 01:43:53;;;;;;;;;;;25.90;74.90;;;;;;5051366;28;19932;-62
2022/09/07 01:46:29;;;;;;;;;;;25.90;74.80;;;;;;5054991;28;19936;-62
2022/09/07 01:48:57;;;;;;;;;;;25.90;74.80;;;;;;5053989;28;19925;-61
2022/09/07 01:51:24;;;;;;;;;;;26.00;76.30;;;;;;5033923;28;19964;-63
2022/09/07 01:53:51;;;;;;;;;;;25.80;76.20;;;;;;5035312;28;20268;-62
2022/09/07 01:56:26;;;;;;;;;;;25.50;76.00;;;;;;5033512;28;19921;-62
2022/09/07 01:59:18;;;;;;;;;;;25.90;74.90;;;;;;5034286;28;20298;-62
2022/09/07 02:01:46;;;;;;;;;;;26.00;74.90;;;;;;4972514;28;19932;-62
2022/09/07 02:04:14;;;;;;;;;;;25.80;76.20;;;;;;4941117;28;19926;-63
2022/09/07 02:06:43;;;;;;;;;;;26.00;76.30;;;;;;4969855;28;20400;-62
2022/09/07 02:09:27;;;;;;;;;;;25.90;74.90;;;;;;4972786;28;19937;-62
2022/09/07 02:11:53;;;;;;;;;;;25.90;75.00;;;;;;4971804;28;20423;-62
2022/09/07 02:14:21;;;;;;;;;;;25.70;76.20;;;;;;4961321;28;20408;-63
2022/09/07 02:16:53;;;;;;;;;;;25.60;76.40;;;;;;4973645;28;20486;-62
2022/09/07 02:19:19;;;;;;;;;;;25.80;75.10;;;;;;4938574;29;20436;-62
2022/09/07 02:21:47;;;;;;;;;;;25.80;76.30;;;;;;4954269;28;19970;-62
2022/09/07 02:24:42;;;;;;;;;;;25.70;76.50;;;;;;4933741;29;20053;-62
2022/09/07 02:27:08;;;;;;;;;;;26.00;75.40;;;;;;4963586;28;20381;-62
2022/09/07 02:29:34;;;;;;;;;;;25.80;76.70;;;;;;4974071;28;20445;-62
2022/09/07 02:32:00;;;;;;;;;;;25.70;76.50;;;;;;4987018;28;19926;-62
2022/09/07 02:34:25;;;;;;;;;;;25.70;76.50;;;;;;4972703;28;19926;-62
2022/09/07 02:36:51;;;;;;;;;;;26.00;76.70;;;;;;4986574;28;20020;-62
2022/09/07 02:39:17;;;;;;;;;;;25.80;76.70;;;;;;5005081;28;20021;-62
2022/09/07 02:41:43;;;;;;;;;;;26.00;76.90;;;;;;5009614;28;19925;-63
2022/09/07 02:44:16;;;;;;;;;;;25.80;77.10;;;;;;5011260;28;20028;-62
2022/09/07 02:46:50;;;;;;;;;;;25.90;75.70;;;;;;4995741;28;19939;-63
2022/09/07 02:49:34;;;;;;;;;;;25.70;75.60;;;;;;5024712;28;20350;-62
2022/09/07 02:52:03;;;;;;;;;;;25.70;75.70;;;;;;5026253;28;19960;-62
2022/09/07 02:54:47;;;;;;;;;;;25.60;75.60;;;;;;4995584;28;19926;-62
2022/09/07 02:57:31;;;;;;;;;;;25.60;75.70;;;;;;5011644;28;19933;-61
2022/09/07 03:00:05;;;;;;;;;;;25.90;75.90;;;;;;5011222;28;19926;-62
2022/09/07 03:02:31;;;;;;;;;;;25.80;75.90;;;;;;4989796;28;19979;-62
2022/09/07 03:05:16;;;;;;;;;;;25.60;77.00;;;;;;5048842;28;19925;-62
2022/09/07 03:08:03;;;;;;;;;;;25.70;76.00;;;;;;5034277;28;19931;-62
2022/09/07 03:10:28;;;;;;;;;;;25.80;77.50;;;;;;5005685;28;19929;-62
2022/09/07 03:12:54;;;;;;;;;;;25.60;76.80;;;;;;5034803;28;20474;-62
2022/09/07 03:15:21;;;;;;;;;;;25.60;76.90;;;;;;5043428;28;19924;-62
2022/09/07 03:17:47;;;;;;;;;;;25.70;77.20;;;;;;5045137;28;20023;-62
2022/09/07 03:20:12;;;;;;;;;;;25.70;77.30;;;;;;5040434;28;20435;-61
2022/09/07 03:22:38;;;;;;;;;;;25.70;77.20;;;;;;5050969;28;19928;-62
2022/09/07 03:25:04;;;;;;;;;;;25.70;77.30;;;;;;5057687;28;20394;-62
2022/09/07 03:27:30;;;;;;;;;;;25.60;76.90;;;;;;5055551;28;19932;-62
2022/09/07 03:29:56;;;;;;;;;;;25.80;77.70;;;;;;5048027;28;20287;-62
2022/09/07 03:32:22;;;;;;;;;;;25.80;77.70;;;;;;5047387;28;20348;-63
2022/09/07 03:34:48;;;;;;;;;;;25.40;77.30;;;;;;5048862;28;19933;-68
2022/09/07 03:37:13;;;;;;;;;;;25.70;77.30;;;;;;5037471;28;19924;-69
2022/09/07 03:39:39;;;;;;;;;;;25.90;77.70;;;;;;5030563;28;19929;-68
2022/09/07 03:42:05;;;;;;;;;;;25.80;77.70;;;;;;5046364;28;19991;-68
2022/09/07 03:44:31;;;;;;;;;;;25.70;77.70;;;;;;5047820;28;20339;-68
2022/09/07 03:46:56;;;;;;;;;;;25.70;77.80;;;;;;5065890;28;19972;-69
2022/09/07 03:49:22;;;;;;;;;;;25.70;77.80;;;;;;5056267;28;20299;-71
2022/09/07 03:51:47;;;;;;;;;;;25.50;77.50;;;;;;5057339;28;19936;-63
2022/09/07 03:54:13;;;;;;;;;;;25.40;77.60;;;;;;5042182;28;20446;-62
2022/09/07 03:56:39;;;;;;;;;;;25.60;77.70;;;;;;5056911;28;20025;-62
2022/09/07 03:59:04;;;;;;;;;;;25.50;77.80;;;;;;5054426;28;19928;-62
2022/09/07 04:01:30;;;;;;;;;;;25.40;77.60;;;;;;5038129;28;19925;-62
2022/09/07 04:03:56;;;;;;;;;;;25.60;78.00;;;;;;5056744;28;20348;-62
2022/09/07 04:06:22;;;;;;;;;;;25.80;78.10;;;;;;5049758;28;20436;-62
2022/09/07 04:08:47;;;;;;;;;;;25.70;78.10;;;;;;5054203;28;19928;-62
2022/09/07 04:11:15;;;;;;;;;;;25.60;77.70;;;;;;5040197;28;20367;-62
2022/09/07 04:13:40;;;;;;;;;;;26.10;78.50;;;;;;5047273;28;20337;-62
2022/09/07 04:16:18;;;;;;;;;;;25.50;77.50;;;;;;5059112;28;21324;-62
2022/09/07 04:18:43;;;;;;;;;;;25.60;76.80;;;;;;5059165;28;20020;-62
2022/09/07 04:21:09;;;;;;;;;;;25.40;77.60;;;;;;5039576;28;20028;-62
2022/09/07 04:23:41;;;;;;;;;;;25.40;77.90;;;;;;5052380;28;19925;-65
2022/09/07 04:26:11;;;;;;;;;;;25.40;76.90;;;;;;5058643;28;19947;-62
2022/09/07 04:28:37;;;;;;;;;;;25.40;78.30;;;;;;5038359;28;20382;-62
2022/09/07 04:31:02;;;;;;;;;;;25.40;78.00;;;;;;5055520;28;19979;-68
2022/09/07 04:33:31;;;;;;;;;;;25.20;78.00;;;;;;5055610;28;19968;-68
2022/09/07 04:36:00;;;;;;;;;;;25.30;76.80;;;;;;5039038;28;19925;-69
2022/09/07 04:38:26;;;;;;;;;;;25.80;77.20;;;;;;5043624;28;19933;-69
2022/09/07 04:41:08;;;;;;;;;;;25.50;78.40;;;;;;5047223;28;20012;-62
2022/09/07 04:43:34;;;;;;;;;;;25.50;77.10;;;;;;5036934;28;20013;-63
2022/09/07 04:46:03;;;;;;;;;;;25.50;78.70;;;;;;5041979;28;20346;-63
2022/09/07 04:48:29;;;;;;;;;;;25.40;77.20;;;;;;5020568;28;20357;-62
2022/09/07 04:50:55;;;;;;;;;;;25.40;78.30;;;;;;5045299;28;20008;-62
2022/09/07 04:53:20;;;;;;;;;;;25.50;78.50;;;;;;5055917;28;19931;-62
2022/09/07 04:55:46;;;;;;;;;;;25.60;78.90;;;;;;5040517;28;19925;-64
2022/09/07 04:58:11;;;;;;;;;;;25.50;78.60;;;;;;5047149;28;19931;-62
2022/09/07 05:00:40;;;;;;;;;;;25.20;78.60;;;;;;5055250;28;20405;-64
2022/09/07 05:03:06;;;;;;;;;;;25.40;77.80;;;;;;5055721;28;19929;-62
2022/09/07 05:05:34;;;;;;;;;;;25.10;78.50;;;;;;5045797;28;19931;-62
2022/09/07 05:08:00;;;;;;;;;;;25.20;78.70;;;;;;5053225;28;19931;-61
2022/09/07 05:10:25;;;;;;;;;;;25.10;78.50;;;;;;5050685;28;20008;-62
2022/09/07 05:12:51;;;;;;;;;;;25.10;78.40;;;;;;5043885;28;19925;-61
2022/09/07 05:15:17;;;;;;;;;;;25.80;79.20;;;;;;5056048;28;20264;-62
2022/09/07 05:17:42;;;;;;;;;;;25.30;78.90;;;;;;5043494;28;20291;-61
2022/09/07 05:20:08;;;;;;;;;;;25.20;78.90;;;;;;5037627;28;19925;-62
2022/09/07 05:22:34;;;;;;;;;;;25.50;78.70;;;;;;5051863;28;20444;-68
2022/09/07 05:25:00;;;;;;;;;;;25.40;79.10;;;;;;5035733;28;19983;-62
2022/09/07 05:27:25;;;;;;;;;;;25.30;78.80;;;;;;5014479;28;19925;-64
2022/09/07 05:29:51;;;;;;;;;;;25.20;78.80;;;;;;5041704;28;19925;-61
2022/09/07 05:32:17;;;;;;;;;;;25.10;78.50;;;;;;5046071;28;19925;-62
2022/09/07 05:34:43;;;;;;;;;;;25.50;78.90;;;;;;5046713;28;20432;-62
2022/09/07 05:37:08;;;;;;;;;;;25.40;78.80;;;;;;5052709;28;20019;-63
2022/09/07 05:39:34;;;;;;;;;;;25.60;79.00;;;;;;5043394;28;20045;-63
2022/09/07 05:42:00;;;;;;;;;;;25.10;78.30;;;;;;5052132;28;19929;-62
2022/09/07 05:44:25;;;;;;;;;;;25.50;79.00;;;;;;5042354;28;20271;-62
2022/09/07 05:46:51;;;;;;;;;;;25.40;78.70;;;;;;5034994;28;19947;-61
2022/09/07 05:49:17;;;;;;;;;;;25.20;78.90;;;;;;5041913;28;20302;-62
2022/09/07 05:51:42;;;;;;;;;;;25.40;78.70;;;;;;5053198;28;20299;-61
2022/09/07 05:54:09;;;;;;;;;;;25.50;79.00;;;;;;5044962;28;19931;-62
2022/09/07 05:56:35;;;;;;;;;;;25.40;79.10;;;;;;5023768;28;19932;-62
2022/09/07 05:59:00;;;;;;;;;;;25.70;79.10;;;;;;5033915;28;19925;-62
2022/09/07 06:01:26;;;;;;;;;;;25.40;78.50;;;;;;5039340;28;19979;-62
2022/09/07 06:03:52;;;;;;;;;;;25.40;78.70;;;;;;5042258;28;19925;-63
2022/09/07 06:06:18;;;;;;;;;;;25.60;78.70;;;;;;5036647;28;19925;-63
2022/09/07 06:08:44;;;;;;;;;;;25.60;78.90;;;;;;5039731;28;19925;-61
2022/09/07 06:11:11;;;;;;;;;;;25.70;79.20;;;;;;5040151;28;20366;-61
2022/09/07 06:13:37;;;;;;;;;;;25.50;78.90;;;;;;5041115;28;20290;-61
2022/09/07 06:16:03;;;;;;;;;;;25.60;78.90;;;;;;5045671;28;19929;-62
2022/09/07 06:18:33;;;;;;;;;;;25.60;79.00;;;;;;5040725;28;19925;-62
2022/09/07 06:21:06;;;;;;;;;;;25.40;77.60;;;;;;5034440;28;19976;-63
2022/09/07 06:23:32;;;;;;;;;;;25.30;77.50;;;;;;5048465;28;19968;-61
2022/09/07 06:25:57;;;;;;;;;;;25.70;79.20;;;;;;5060283;28;19994;-62
2022/09/07 06:28:27;;;;;;;;;;;25.90;79.10;;;;;;5044687;28;19925;-62
2022/09/07 06:30:57;;;;;;;;;;;25.50;77.60;;;;;;5056939;28;19979;-72
2022/09/07 06:33:22;;;;;;;;;;;25.50;79.00;;;;;;5056229;28;20139;-73
2022/09/07 06:35:57;;;;;;;;;;;25.60;79.00;;;;;;5030080;28;20448;-63
2022/09/07 06:38:23;;;;;;;;;;;25.60;77.60;;;;;;5050267;28;19925;-74
2022/09/07 06:40:49;;;;;;;;;;;25.70;79.10;;;;;;5041089;28;19970;-72
2022/09/07 06:43:14;;;;;;;;;;;25.60;78.70;;;;;;5052404;28;19924;-63
2022/09/07 06:45:40;;;;;;;;;;;25.70;78.80;;;;;;5041936;28;20456;-72
2022/09/07 06:48:06;;;;;;;;;;;25.60;78.60;;;;;;5048865;28;20415;-63
2022/09/07 06:50:32;;;;;;;;;;;25.70;78.90;;;;;;5034852;28;19925;-62
2022/09/07 06:52:58;;;;;;;;;;;25.90;79.30;;;;;;5044692;28;19933;-62
2022/09/07 06:55:26;;;;;;;;;;;25.40;79.30;;;;;;5046508;28;19925;-71
2022/09/07 06:57:52;;;;;;;;;;;25.30;79.50;;;;;;5052884;28;19924;-61
2022/09/07 07:00:18;;;;;;;;;;;25.10;79.50;;;;;;5052360;28;19929;-74
2022/09/07 07:02:43;;;;;;;;;;;25.10;79.30;;;;;;5030063;28;20058;-62
2022/09/07 07:05:09;;;;;;;;;;;25.00;79.80;;;;;;5052609;28;19968;-62
2022/09/07 07:07:35;;;;;;;;;;;25.20;79.90;;;;;;5043704;28;19932;-62
2022/09/07 07:10:00;;;;;;;;;;;25.10;80.20;;;;;;5037716;28;19925;-83
2022/09/07 07:12:28;;;;;;;;;;;25.10;80.10;;;;;;5031892;28;20020;-62
2022/09/07 07:14:53;;;;;;;;;;;25.20;80.60;;;;;;5033302;28;20297;-85
2022/09/07 07:17:19;;;;;;;;;;;25.10;80.40;;;;;;5051144;28;19921;-82
2022/09/07 07:19:45;;;;;;;;;;;25.20;80.00;;;;;;5035632;28;19932;-61
2022/09/07 07:22:10;;;;;;;;;;;24.80;80.20;;;;;;5050309;28;20298;-76
2022/09/07 07:24:36;;;;;;;;;;;25.20;80.60;;;;;;5050377;28;19925;-62
2022/09/07 07:27:02;;;;;;;;;;;25.10;80.10;;;;;;5034727;28;20021;-67
2022/09/07 07:29:27;;;;;;;;;;;25.10;80.20;;;;;;5064690;28;19940;-81
2022/09/07 07:31:53;;;;;;;;;;;25.10;80.10;;;;;;5049871;28;19925;-84
2022/09/07 07:34:19;;;;;;;;;;;25.50;80.70;;;;;;5049009;28;19924;-62
2022/09/07 07:36:44;;;;;;;;;;;25.30;80.50;;;;;;5051827;28;19925;-62
2022/09/07 07:39:10;;;;;;;;;;;25.40;80.40;;;;;;5038851;28;19929;-69
2022/09/07 07:41:36;;;;;;;;;;;25.00;79.60;;;;;;5038910;28;19932;-62
2022/09/07 07:44:02;;;;;;;;;;;25.00;80.30;;;;;;5062349;28;20405;-61
2022/09/07 07:46:28;;;;;;;;;;;25.00;80.00;;;;;;5032134;28;20303;-62
2022/09/07 07:48:54;;;;;;;;;;;25.20;80.60;;;;;;5034031;28;20003;-62
2022/09/07 07:51:20;;;;;;;;;;;25.00;80.20;;;;;;5053381;28;20398;-61
2022/09/07 07:53:45;;;;;;;;;;;25.00;80.60;;;;;;5048700;28;20014;-61
2022/09/07 07:56:11;;;;;;;;;;;24.90;80.50;;;;;;5046708;28;20432;-72
2022/09/07 07:58:37;;;;;;;;;;;25.10;81.00;;;;;;5041954;28;19928;-62
2022/09/07 08:01:03;;;;;;;;;;;24.90;80.50;;;;;;5043757;28;19936;-62
2022/09/07 08:03:28;;;;;;;;;;;24.90;81.10;;;;;;5060373;28;19929;-63
2022/09/07 08:05:54;;;;;;;;;;;24.90;81.20;;;;;;5039385;28;19933;-71
2022/09/07 08:08:20;;;;;;;;;;;25.00;81.30;;;;;;5042708;28;19983;-67
2022/09/07 08:10:46;;;;;;;;;;;25.00;82.00;;;;;;5040199;28;19932;-65
2022/09/07 08:13:13;;;;;;;;;;;24.90;82.30;;;;;;5052863;28;19926;-67
2022/09/07 08:15:44;;;;;;;;;;;24.80;82.80;;;;;;5039471;28;19924;-62
2022/09/07 08:18:13;;;;;;;;;;;24.60;83.00;;;;;;5031304;28;20438;-61
2022/09/07 08:20:39;;;;;;;;;;;24.70;82.50;;;;;;5049954;28;19931;-63
2022/09/07 08:23:06;;;;;;;;;;;24.20;83.80;;;;;;5055733;28;20271;-63
2022/09/07 08:25:32;;;;;;;;;;;24.30;84.40;;;;;;5056661;28;19940;-62
2022/09/07 08:27:58;;;;;;;;;;;24.20;84.70;;;;;;5042171;28;19933;-61
2022/09/07 08:30:24;;;;;;;;;;;24.30;85.10;;;;;;5039739;28;20275;-81
2022/09/07 08:32:50;;;;;;;;;;;24.10;85.00;;;;;;5036489;28;19932;-72
2022/09/07 08:35:16;;;;;;;;;;;24.20;85.80;;;;;;5053276;28;19951;-64
2022/09/07 08:37:42;;;;;;;;;;;23.90;85.70;;;;;;5044136;28;19925;-86
2022/09/07 08:40:17;;;;;;;;;;;24.00;86.20;;;;;;5038805;28;19929;-63
2022/09/07 08:42:42;;;;;;;;;;;23.70;85.10;;;;;;5051122;28;20337;-64
2022/09/07 08:45:10;;;;;;;;;;;24.00;86.20;;;;;;5042866;28;19979;-63
2022/09/07 08:47:37;;;;;;;;;;;24.00;86.30;;;;;;5065167;28;19925;-66
2022/09/07 08:50:05;;;;;;;;;;;23.70;87.20;;;;;;5051755;28;19940;-62
2022/09/07 08:52:51;;;;;;;;;;;24.10;87.90;;;;;;5055197;28;19932;-61
2022/09/07 08:55:56;;;;;;;;;;;23.90;87.90;;;;;;5046131;28;20415;-67
2022/09/07 08:58:22;;;;;;;;;;;23.60;86.60;;;;;;5012214;28;19926;-77
2022/09/07 09:00:48;;;;;;;;;;;23.80;88.30;;;;;;4993534;28;19933;-68
2022/09/07 09:03:21;;;;;;;;;;;24.00;88.20;;;;;;5006184;28;20403;-61
2022/09/07 09:05:52;;;;;;;;;;;23.90;87.20;;;;;;4990061;28;19926;-63
2022/09/07 09:08:27;;;;;;;;;;;23.60;87.10;;;;;;4997576;28;19930;-62
2022/09/07 09:10:56;;;;;;;;;;;23.90;87.30;;;;;;5004217;28;19945;-62
2022/09/07 09:13:41;;;;;;;;;;;23.90;87.50;;;;;;4996111;28;19929;-80
2022/09/07 09:16:14;;;;;;;;;;;23.60;87.50;;;;;;5003907;28;19929;-79
2022/09/07 09:18:59;;;;;;;;;;;24.00;87.90;;;;;;5011546;28;20063;-71
2022/09/07 09:21:25;;;;;;;;;;;23.80;88.10;;;;;;4990278;28;19933;-82
2022/09/07 09:23:51;;;;;;;;;;;23.80;89.30;;;;;;4992157;28;19926;-68
2022/09/07 09:26:21;;;;;;;;;;;23.80;89.50;;;;;;4977965;28;19926;-65
2022/09/07 09:28:47;;;;;;;;;;;24.00;88.40;;;;;;4999211;28;20291;-66
2022/09/07 09:31:17;;;;;;;;;;;24.10;89.60;;;;;;5032322;28;19932;-67
2022/09/07 09:33:42;;;;;;;;;;;23.70;88.40;;;;;;5017197;28;19941;-66
2022/09/07 09:36:21;;;;;;;;;;;24.00;89.70;;;;;;5020580;28;19924;-85
2022/09/07 09:38:47;;;;;;;;;;;23.90;90.00;;;;;;5022764;28;19940;-74
2022/09/07 09:41:13;;;;;;;;;;;23.90;89.80;;;;;;5032977;28;19925;-68
2022/09/07 09:43:50;;;;;;;;;;;23.90;90.00;;;;;;5050263;28;19940;-67
2022/09/07 09:46:21;;;;;;;;;;;23.80;88.70;;;;;;5047534;28;19933;-65
2022/09/07 09:48:52;;;;;;;;;;;24.00;88.80;;;;;;5038467;28;19933;-77
2022/09/07 09:51:17;;;;;;;;;;;24.10;90.10;;;;;;5026259;28;19976;-68
2022/09/07 09:54:10;;;;;;;;;;;24.00;90.00;;;;;;5047961;28;19925;-73
2022/09/07 09:56:36;;;;;;;;;;;24.20;88.90;;;;;;5023978;28;19925;-70
2022/09/07 09:59:17;;;;;;;;;;;24.10;90.10;;;;;;5032497;28;19933;-68
2022/09/07 10:01:46;;;;;;;;;;;23.80;88.80;;;;;;5034239;28;20020;-66
2022/09/07 10:04:18;;;;;;;;;;;24.10;88.90;;;;;;5033087;28;20394;-73
2022/09/07 10:06:53;;;;;;;;;;;24.00;89.00;;;;;;5036951;28;20502;-75
2022/09/07 10:09:20;;;;;;;;;;;24.40;89.20;;;;;;5033519;28;20409;-68
2022/09/07 10:11:55;;;;;;;;;;;24.40;90.10;;;;;;5009399;28;19984;-63
2022/09/07 10:14:24;;;;;;;;;;;24.40;89.40;;;;;;5013247;28;20387;-67
2022/09/07 10:16:50;;;;;;;;;;;24.50;89.00;;;;;;5025827;28;19933;-66
2022/09/07 10:19:24;;;;;;;;;;;24.30;90.00;;;;;;5044275;28;19933;-68
2022/09/07 10:21:56;;;;;;;;;;;24.50;88.80;;;;;;5044324;28;20295;-62
2022/09/07 10:24:26;;;;;;;;;;;24.60;88.80;;;;;;5030061;28;20056;-76
2022/09/07 10:26:52;;;;;;;;;;;24.60;88.70;;;;;;5021370;28;20392;-62
2022/09/07 10:29:18;;;;;;;;;;;24.20;89.50;;;;;;5001853;28;19967;-61
2022/09/07 10:31:49;;;;;;;;;;;24.30;89.80;;;;;;5026886;28;19932;-62
2022/09/07 10:34:47;;;;;;;;;;;24.40;88.40;;;;;;5022915;28;19933;-67
2022/09/07 10:37:35;;;;;;;;;;;24.60;88.70;;;;;;4991016;28;20316;-64
2022/09/07 10:40:00;;;;;;;;;;;24.40;88.50;;;;;;4992767;28;19926;-62
2022/09/07 10:42:27;;;;;;;;;;;24.40;89.70;;;;;;4992962;28;19926;-61
2022/09/07 10:44:59;;;;;;;;;;;24.40;90.20;;;;;;4976611;28;20311;-61
2022/09/07 10:47:27;;;;;;;;;;;24.60;88.60;;;;;;4991440;28;19933;-62
2022/09/07 10:50:10;;;;;;;;;;;24.40;88.60;;;;;;4992774;28;19933;-62
2022/09/07 10:52:41;;;;;;;;;;;24.60;88.50;;;;;;4991523;28;20422;-64
2022/09/07 10:55:25;;;;;;;;;;;24.90;88.70;;;;;;4991792;28;20030;-63
2022/09/07 10:58:09;;;;;;;;;;;24.50;88.20;;;;;;4992500;28;20320;-62
2022/09/07 11:00:37;;;;;;;;;;;24.60;88.00;;;;;;4992014;28;20022;-67
2022/09/07 11:03:08;;;;;;;;;;;24.90;89.60;;;;;;4992347;28;19933;-62
2022/09/07 11:05:33;;;;;;;;;;;24.90;89.50;;;;;;4992378;28;19995;-62
2022/09/07 11:08:03;;;;;;;;;;;24.90;89.20;;;;;;4992524;28;19925;-61
2022/09/07 11:10:31;;;;;;;;;;;24.80;90.00;;;;;;4992353;28;19926;-61
2022/09/07 11:12:58;;;;;;;;;;;24.90;87.90;;;;;;5014642;28;19929;-62
2022/09/07 11:15:25;;;;;;;;;;;24.80;89.20;;;;;;5015050;28;19931;-64
2022/09/07 11:18:06;;;;;;;;;;;25.00;90.00;;;;;;5046915;28;19931;-64
2022/09/07 11:20:36;;;;;;;;;;;25.10;88.00;;;;;;5033628;28;19983;-62
2022/09/07 11:23:21;;;;;;;;;;;25.00;89.60;;;;;;5030047;28;20276;-62
2022/09/07 11:25:52;;;;;;;;;;;24.80;88.20;;;;;;5033973;28;19972;-64
2022/09/07 11:28:22;;;;;;;;;;;24.70;89.60;;;;;;5048285;28;19929;-62
2022/09/07 11:30:49;;;;;;;;;;;25.00;88.30;;;;;;5033465;28;20407;-62
2022/09/07 11:33:18;;;;;;;;;;;24.90;89.50;;;;;;5044338;28;20013;-62
2022/09/07 11:36:03;;;;;;;;;;;24.70;87.90;;;;;;4995772;28;19972;-62
2022/09/07 11:38:33;;;;;;;;;;;24.90;88.00;;;;;;5014033;28;19933;-62
2022/09/07 11:41:17;;;;;;;;;;;24.70;87.70;;;;;;5014085;28;19926;-62
2022/09/07 11:43:47;;;;;;;;;;;24.80;88.00;;;;;;5017968;28;19933;-62
2022/09/07 11:46:12;;;;;;;;;;;24.80;89.40;;;;;;5017141;28;20382;-62
2022/09/07 11:48:40;;;;;;;;;;;24.80;89.20;;;;;;5037621;28;19960;-61
2022/09/07 11:51:08;;;;;;;;;;;24.90;89.70;;;;;;5049583;28;20387;-61
2022/09/07 11:53:35;;;;;;;;;;;25.00;89.80;;;;;;5021526;28;19922;-62
2022/09/07 11:56:05;;;;;;;;;;;25.00;89.50;;;;;;5001267;28;20466;-62
2022/09/07 11:58:37;;;;;;;;;;;24.60;87.80;;;;;;5000704;28;19933;-62
2022/09/07 12:01:08;;;;;;;;;;;25.20;87.90;;;;;;5025774;28;19925;-62
2022/09/07 12:03:46;;;;;;;;;;;25.10;88.40;;;;;;5038205;28;19932;-62
2022/09/07 12:06:14;;;;;;;;;;;25.00;88.80;;;;;;5037090;28;19933;-61
2022/09/07 12:09:00;;;;;;;;;;;25.30;90.00;;;;;;5053598;28;20357;-62
2022/09/07 12:11:44;;;;;;;;;;;25.00;89.50;;;;;;5016532;28;20370;-62
2022/09/07 12:14:28;;;;;;;;;;;25.10;88.00;;;;;;5032430;28;19925;-62
2022/09/07 12:16:54;;;;;;;;;;;25.40;88.20;;;;;;5017497;28;19977;-61
2022/09/07 12:22:36;;;;;;;;;;;25.40;87.70;;;;;;5017364;28;19926;-62
2022/09/07 12:25:08;;;;;;;;;;;25.40;88.60;;;;;;5032282;28;19929;-61
2022/09/07 12:27:34;;;;;;;;;;;25.70;87.40;;;;;;5017346;28;19979;-64
2022/09/07 12:30:00;;;;;;;;;;;25.70;89.00;;;;;;5030658;28;19925;-62
2022/09/07 12:32:45;;;;;;;;;;;25.70;88.20;;;;;;5016531;28;19979;-62
2022/09/07 12:35:28;;;;;;;;;;;25.70;87.10;;;;;;5015774;28;19948;-61
2022/09/07 12:37:54;;;;;;;;;;;25.40;86.80;;;;;;5015348;28;19926;-61
2022/09/07 12:40:26;;;;;;;;;;;25.50;88.00;;;;;;5015285;28;19929;-61
2022/09/07 12:43:10;;;;;;;;;;;25.50;86.60;;;;;;5017275;28;20012;-61
2022/09/07 12:45:36;;;;;;;;;;;25.70;86.50;;;;;;4998792;28;19965;-62
2022/09/07 12:48:22;;;;;;;;;;;25.60;87.60;;;;;;5016878;28;19984;-61
2022/09/07 12:50:54;;;;;;;;;;;25.70;87.80;;;;;;5015384;28;20402;-62
2022/09/07 12:53:25;;;;;;;;;;;25.80;86.30;;;;;;5016825;28;19973;-61
2022/09/07 12:56:03;;;;;;;;;;;25.90;86.30;;;;;;4998920;28;19925;-62
2022/09/07 12:58:48;;;;;;;;;;;25.90;86.20;;;;;;5015699;28;20283;-62
2022/09/07 13:01:19;;;;;;;;;;;25.90;86.00;;;;;;5016127;28;19932;-61
2022/09/07 13:03:48;;;;;;;;;;;26.00;85.90;;;;;;4998598;28;19928;-62
2022/09/07 13:06:20;;;;;;;;;;;25.90;85.50;;;;;;5015553;28;19980;-62
2022/09/07 13:08:45;;;;;;;;;;;25.90;85.50;;;;;;5017632;28;19929;-62
2022/09/07 13:11:20;;;;;;;;;;;26.00;86.60;;;;;;5033373;28;20409;-62
2022/09/07 13:13:56;;;;;;;;;;;26.10;85.20;;;;;;5035744;28;19925;-60
2022/09/07 13:16:37;;;;;;;;;;;26.20;85.30;;;;;;5051606;28;20326;-61
2022/09/07 13:19:03;;;;;;;;;;;26.30;85.30;;;;;;5047769;28;19926;-61
2022/09/07 13:21:36;;;;;;;;;;;26.20;86.40;;;;;;5031428;28;19972;-61
2022/09/07 13:24:23;;;;;;;;;;;26.10;84.90;;;;;;5016235;28;19930;-61
2022/09/07 13:26:56;;;;;;;;;;;26.10;84.80;;;;;;5016044;28;20008;-61
2022/09/07 13:29:45;;;;;;;;;;;26.20;84.70;;;;;;5018018;28;19976;-61
2022/09/07 13:32:18;;;;;;;;;;;26.10;84.40;;;;;;4974426;28;19933;-62
2022/09/07 13:34:47;;;;;;;;;;;26.20;84.20;;;;;;4955207;29;20396;-61
2022/09/07 13:37:20;;;;;;;;;;;26.30;84.00;;;;;;4939812;29;19963;-61
2022/09/07 13:39:47;;;;;;;;;;;26.30;83.80;;;;;;4955563;28;20431;-64
2022/09/07 13:42:23;;;;;;;;;;;26.20;85.00;;;;;;4955287;28;19980;-61
2022/09/07 13:44:52;;;;;;;;;;;26.50;83.70;;;;;;4974086;28;19926;-61
2022/09/07 13:47:21;;;;;;;;;;;26.70;83.80;;;;;;4974528;28;19926;-61
2022/09/07 13:49:49;;;;;;;;;;;26.50;83.50;;;;;;4974531;28;19944;-61
2022/09/07 13:52:16;;;;;;;;;;;26.30;83.10;;;;;;4973232;28;19967;-61
2022/09/07 13:54:50;;;;;;;;;;;26.60;84.60;;;;;;4973798;28;19980;-62
2022/09/07 13:57:37;;;;;;;;;;;26.40;83.00;;;;;;4954224;29;19927;-61
2022/09/07 14:00:03;;;;;;;;;;;26.60;83.00;;;;;;4961446;28;19926;-61
2022/09/07 14:02:32;;;;;;;;;;;26.40;83.60;;;;;;4958047;28;20012;-62
2022/09/07 14:04:59;;;;;;;;;;;26.30;82.70;;;;;;4973943;28;19985;-61
2022/09/07 14:07:25;;;;;;;;;;;26.40;84.10;;;;;;4973647;28;19929;-61
2022/09/07 14:10:23;;;;;;;;;;;26.60;84.00;;;;;;5019732;28;20282;-61
2022/09/07 14:12:49;;;;;;;;;;;26.60;82.60;;;;;;4993466;28;19932;-61
2022/09/07 14:15:44;;;;;;;;;;;26.60;83.70;;;;;;4980521;28;19926;-61
2022/09/07 14:18:10;;;;;;;;;;;26.40;82.30;;;;;;4954662;29;20350;-62
2022/09/07 14:20:46;;;;;;;;;;;26.50;83.60;;;;;;4954588;29;19927;-61
2022/09/07 14:23:18;;;;;;;;;;;26.50;83.50;;;;;;4954674;29;19942;-62
2022/09/07 14:25:43;;;;;;;;;;;26.50;84.10;;;;;;4952061;29;20380;-63
2022/09/07 14:28:26;;;;;;;;;;;26.60;83.20;;;;;;4937266;29;20005;-62
2022/09/07 14:30:52;;;;;;;;;;;26.70;83.50;;;;;;4954575;29;20373;-62
2022/09/07 14:33:19;;;;;;;;;;;26.60;83.00;;;;;;4953060;29;19934;-61
2022/09/07 14:35:44;;;;;;;;;;;26.50;83.10;;;;;;4953217;29;19934;-61